Prescott, Arizona
Current Conditions -  °F | °C
As of 11:53 PM on Friday 28 Nov 2014 (Local Time) from KPRC Reporting Station
Clear Clear  
Wind Chill: 39°   Ceiling: Unl
Heat Index: 43°   Visibility: 10mi
Dew Point: 15°   Wind: 7mph
Humidity: 32%   Direction: 180°S
Pressure: 30.06"   Gusts: NA
Location:  34.54°N, 112.47°W
Report Text: KPRC 290653Z AUTO 18006KT 10SM CLR 06/M09 A3006 RMK AO2 SLP131 T00611094 402331006
Loading
Personal Weather Stations






























Interactive Weather Map New forecast layout! Learn more

10-Day Weather Forecast

Advertisements
Track Severe Weather on mobile